Time;durP1;ratioP1;P1;durP2;ratioP2;P2;SDS_P1;SDS_P2;PMS_P1;PMS_P2;Temp;Humidity;BMP_temperature;BMP_pressure;BME280_temperature;BME280_humidity;BME280_pressure;Samples;Min_cycle;Max_cycle;Signal;HPM_P1;HPM_P2
2021/10/28 07:58:28;;;;;;;4.47;3.45;;;;;;;;;;6218102;23;20015;-79
2021/10/28 08:19:51;;;;;;;5.72;3.45;;;;;;;;;;6229770;23;20066;-94
2021/10/28 08:22:42;;;;;;;4.97;3.00;;;;;;;;;;6219594;23;20001;-86
2021/10/28 08:30:33;;;;;;;5.63;3.17;;;;;;;;;;6217775;23;20094;-79
2021/10/28 08:32:58;;;;;;;4.78;3.40;;;;;;;;;;6218349;23;20419;-79
2021/10/28 08:35:24;;;;;;;4.22;3.53;;;;;;;;;;6217711;23;20420;-81
2021/10/28 08:37:54;;;;;;;4.20;3.10;;;;;;;;;;6217650;23;20038;-81
2021/10/28 08:40:20;;;;;;;5.53;3.72;;;;;;;;;;6217629;23;20449;-81
2021/10/28 08:42:46;;;;;;;4.85;3.20;;;;;;;;;;6218200;23;20079;-82
2021/10/28 08:45:14;;;;;;;4.28;3.08;;;;;;;;;;6217985;23;20028;-80
2021/10/28 08:47:47;;;;;;;5.18;3.55;;;;;;;;;;6217194;23;20013;-82
2021/10/28 08:50:24;;;;;;;3.80;3.38;;;;;;;;;;6217358;23;20035;-79
2021/10/28 08:53:09;;;;;;;4.30;3.10;;;;;;;;;;6217678;23;20011;-81
2021/10/28 08:55:39;;;;;;;6.32;3.35;;;;;;;;;;6217838;23;20030;-80
2021/10/28 09:27:07;;;;;;;3.38;2.63;;;;;;;;;;6227794;23;20004;-83
2021/10/28 09:29:38;;;;;;;4.10;2.90;;;;;;;;;;6209015;23;20000;-84
2021/10/28 09:51:16;;;;;;;4.10;3.50;;;;;;;;;;6226572;23;20019;-82
2021/10/28 09:59:45;;;;;;;3.78;3.42;;;;;;;;;;6216936;23;20443;-82
2021/10/28 10:02:24;;;;;;;4.65;3.35;;;;;;;;;;6217216;23;20420;-79
2021/10/28 10:04:50;;;;;;;4.10;3.53;;;;;;;;;;6217073;23;20001;-80
2021/10/28 10:07:17;;;;;;;3.90;3.35;;;;;;;;;;6216720;23;20139;-81
2021/10/28 10:09:44;;;;;;;4.43;3.67;;;;;;;;;;6217203;23;20000;-81
2021/10/28 10:12:10;;;;;;;3.60;3.30;;;;;;;;;;6216926;23;20000;-80
2021/10/28 10:14:37;;;;;;;4.35;3.05;;;;;;;;;;6217088;23;20071;-80
2021/10/28 10:17:06;;;;;;;4.90;3.57;;;;;;;;;;6216814;23;20004;-80
2021/10/28 10:19:34;;;;;;;4.88;3.00;;;;;;;;;;6216800;23;20001;-82
2021/10/28 10:22:15;;;;;;;3.92;3.15;;;;;;;;;;6216881;23;20363;-83
2021/10/28 10:30:28;;;;;;;4.57;3.03;;;;;;;;;;6227129;23;20038;-84
2021/10/28 16:23:33;;;;;;;3.25;1.90;;;;;;;;;;6187736;23;20070;-77
2021/10/28 16:26:02;;;;;;;3.10;2.30;;;;;;;;;;6187812;23;20483;-78
2021/10/28 16:28:28;;;;;;;3.55;2.67;;;;;;;;;;6188028;23;19997;-77
2021/10/28 16:30:54;;;;;;;4.45;2.10;;;;;;;;;;6187342;23;20024;-79
2021/10/28 16:33:19;;;;;;;8.50;7.43;;;;;;;;;;6187417;23;20001;-78
2021/10/28 16:35:45;;;;;;;12.50;9.60;;;;;;;;;;6161405;23;20328;-78
2021/10/28 16:38:11;;;;;;;6.68;5.57;;;;;;;;;;6187839;23;20012;-78
2021/10/28 16:40:38;;;;;;;5.72;3.03;;;;;;;;;;6187819;23;20005;-77
2021/10/28 16:43:04;;;;;;;3.95;2.88;;;;;;;;;;6187508;23;20012;-78
2021/10/28 16:45:29;;;;;;;3.63;2.38;;;;;;;;;;6187490;23;20072;-78
2021/10/28 16:47:55;;;;;;;3.35;2.22;;;;;;;;;;6187409;23;20037;-78
2021/10/28 16:50:21;;;;;;;3.88;2.03;;;;;;;;;;6187600;23;20029;-78
2021/10/28 16:52:46;;;;;;;3.40;1.80;;;;;;;;;;6187372;23;20005;-78
2021/10/28 16:55:12;;;;;;;2.92;2.10;;;;;;;;;;6187352;23;20001;-78
2021/10/28 16:57:37;;;;;;;4.25;2.83;;;;;;;;;;6160856;23;20483;-78
2021/10/28 17:00:05;;;;;;;3.67;3.13;;;;;;;;;;6187320;23;20037;-77
2021/10/28 17:02:31;;;;;;;6.32;3.65;;;;;;;;;;6187035;23;20004;-77
2021/10/28 17:04:57;;;;;;;2.83;2.13;;;;;;;;;;6187196;23;20081;-78
2021/10/28 17:07:24;;;;;;;3.20;2.30;;;;;;;;;;6187083;23;20040;-78
2021/10/28 17:09:52;;;;;;;3.08;2.28;;;;;;;;;;6187386;23;20395;-77
2021/10/28 17:12:18;;;;;;;3.10;1.85;;;;;;;;;;6187534;23;20009;-77
2021/10/28 17:14:43;;;;;;;2.92;2.30;;;;;;;;;;6187189;23;20036;-77
2021/10/28 17:17:09;;;;;;;4.78;2.67;;;;;;;;;;6187420;23;20005;-77
2021/10/28 17:19:35;;;;;;;6.25;3.00;;;;;;;;;;6187137;23;20412;-77
2021/10/28 17:22:00;;;;;;;4.03;2.90;;;;;;;;;;6187134;23;20005;-77
2021/10/28 17:24:44;;;;;;;3.58;2.47;;;;;;;;;;6187357;23;20077;-77
2021/10/28 17:27:10;;;;;;;4.22;2.60;;;;;;;;;;6187258;23;20424;-79
2021/10/28 17:29:38;;;;;;;5.50;3.17;;;;;;;;;;6185581;23;20076;-78
2021/10/28 17:32:04;;;;;;;7.78;3.65;;;;;;;;;;6187334;23;20005;-78
2021/10/28 17:34:33;;;;;;;7.40;4.95;;;;;;;;;;6187088;23;20047;-80
2021/10/28 17:36:58;;;;;;;6.88;4.38;;;;;;;;;;6187187;23;20439;-78
2021/10/28 17:39:27;;;;;;;4.35;3.03;;;;;;;;;;6187077;23;20005;-77
2021/10/28 17:41:53;;;;;;;4.80;3.17;;;;;;;;;;6161542;23;20004;-79
2021/10/28 17:44:21;;;;;;;4.13;2.70;;;;;;;;;;6187322;23;20005;-78
2021/10/28 17:46:47;;;;;;;5.00;2.60;;;;;;;;;;6187328;23;20060;-79
2021/10/28 17:49:12;;;;;;;3.45;2.53;;;;;;;;;;6185558;23;20009;-78
2021/10/28 17:51:38;;;;;;;3.60;2.67;;;;;;;;;;6187237;23;20013;-76
2021/10/28 17:54:09;;;;;;;4.60;2.60;;;;;;;;;;6186859;23;20001;-77
2021/10/28 17:56:37;;;;;;;2.78;2.33;;;;;;;;;;6187128;23;20012;-81
2021/10/28 17:59:04;;;;;;;6.18;4.30;;;;;;;;;;6187264;23;20005;-76
2021/10/28 18:01:30;;;;;;;2.85;2.30;;;;;;;;;;6187097;23;20092;-77
2021/10/28 18:03:59;;;;;;;5.38;2.50;;;;;;;;;;6186854;23;20004;-77
2021/10/28 18:06:25;;;;;;;3.03;2.60;;;;;;;;;;6187135;23;20005;-77
2021/10/28 18:08:50;;;;;;;3.80;2.55;;;;;;;;;;6186723;23;20113;-77
2021/10/28 18:11:16;;;;;;;5.85;2.50;;;;;;;;;;6186767;23;20013;-75
2021/10/28 18:13:41;;;;;;;6.95;4.07;;;;;;;;;;6186459;23;20119;-77
2021/10/28 18:16:07;;;;;;;75.05;40.75;;;;;;;;;;6186964;23;20001;-77
2021/10/28 18:18:34;;;;;;;3.42;2.30;;;;;;;;;;6186565;23;20068;-77
2021/10/28 18:21:01;;;;;;;4.43;2.60;;;;;;;;;;6186914;23;20428;-77
2021/10/28 18:23:26;;;;;;;4.50;3.45;;;;;;;;;;6186660;23;20001;-76
2021/10/28 18:25:52;;;;;;;9.95;6.38;;;;;;;;;;6186682;23;20008;-77
2021/10/28 18:28:18;;;;;;;5.82;4.30;;;;;;;;;;6186846;23;20009;-77
2021/10/28 18:30:43;;;;;;;8.07;5.82;;;;;;;;;;6186722;23;20001;-77
2021/10/28 18:33:11;;;;;;;7.38;4.63;;;;;;;;;;6186271;23;20001;-76
2021/10/28 18:35:37;;;;;;;5.80;4.32;;;;;;;;;;6186425;23;20432;-77
2021/10/28 18:38:04;;;;;;;12.40;9.10;;;;;;;;;;6186270;23;20055;-77
2021/10/28 18:40:30;;;;;;;11.15;6.28;;;;;;;;;;6186360;23;20008;-77
2021/10/28 18:42:55;;;;;;;7.97;4.28;;;;;;;;;;6186329;23;20001;-76
2021/10/28 18:45:21;;;;;;;7.13;4.47;;;;;;;;;;6186619;23;20080;-77
2021/10/28 18:47:48;;;;;;;8.02;6.30;;;;;;;;;;6186399;23;20325;-77
2021/10/28 18:50:13;;;;;;;8.77;6.72;;;;;;;;;;6186472;23;20005;-77
2021/10/28 18:52:40;;;;;;;9.00;8.07;;;;;;;;;;6186744;23;20052;-77
2021/10/28 18:55:06;;;;;;;10.30;9.20;;;;;;;;;;6186258;23;20007;-78
2021/10/28 18:57:32;;;;;;;11.07;8.88;;;;;;;;;;6186438;23;20055;-76
2021/10/28 18:59:57;;;;;;;6.93;5.25;;;;;;;;;;6186543;23;20001;-76
2021/10/28 19:02:26;;;;;;;7.40;5.15;;;;;;;;;;6186190;23;19997;-76
2021/10/28 19:04:51;;;;;;;9.70;5.90;;;;;;;;;;6186237;23;20072;-76
2021/10/28 19:07:17;;;;;;;7.30;4.93;;;;;;;;;;6186054;23;20012;-77
2021/10/28 19:09:43;;;;;;;7.90;5.63;;;;;;;;;;6186201;23;20055;-76
2021/10/28 19:12:08;;;;;;;6.57;5.00;;;;;;;;;;6186503;23;20324;-76
2021/10/28 19:14:38;;;;;;;8.65;4.90;;;;;;;;;;6186494;23;20001;-76
2021/10/28 19:17:03;;;;;;;7.80;5.57;;;;;;;;;;6186053;23;20009;-76
2021/10/28 19:19:29;;;;;;;7.00;5.47;;;;;;;;;;6186226;23;20086;-76
2021/10/28 19:21:54;;;;;;;10.95;7.93;;;;;;;;;;6186296;23;20439;-75
2021/10/28 19:24:20;;;;;;;11.48;7.55;;;;;;;;;;6185945;23;20005;-75
2021/10/28 19:26:45;;;;;;;10.95;7.38;;;;;;;;;;6185978;23;20005;-76
2021/10/28 19:29:11;;;;;;;11.77;8.30;;;;;;;;;;6186163;23;20009;-75
2021/10/28 19:32:03;;;;;;;10.85;7.85;;;;;;;;;;6186223;23;20444;-75
2021/10/28 19:34:22;;;;;;;15.20;9.30;;;;;;;;;;6185223;23;20005;-76
2021/10/28 19:37:04;;;;;;;13.50;8.63;;;;;;;;;;6186016;23;20083;-75
2021/10/28 19:47:23;;;;;;;11.35;7.53;;;;;;;;;;6185699;23;20055;-76
2021/10/28 19:49:49;;;;;;;10.23;7.00;;;;;;;;;;6186014;23;20412;-77
2021/10/28 19:52:16;;;;;;;9.68;6.78;;;;;;;;;;6185231;23;20404;-76
2021/10/28 19:54:43;;;;;;;6.40;4.95;;;;;;;;;;6183886;23;20402;-75
2021/10/28 19:57:16;;;;;;;10.32;6.93;;;;;;;;;;6185855;23;20409;-76
2021/10/28 19:59:46;;;;;;;10.57;6.28;;;;;;;;;;6185681;23;20009;-77
2021/10/28 20:02:20;;;;;;;8.88;6.05;;;;;;;;;;6185526;23;20440;-76
2021/10/28 20:05:25;;;;;;;8.52;6.15;;;;;;;;;;6186030;23;20047;-76
2021/10/28 20:20:55;;;;;;;9.90;6.88;;;;;;;;;;6185647;23;20064;-77
2021/10/28 20:23:21;;;;;;;9.48;7.50;;;;;;;;;;6185919;23;20005;-77
2021/10/28 20:25:46;;;;;;;8.85;6.25;;;;;;;;;;6185741;23;20042;-76
2021/10/28 20:28:12;;;;;;;13.45;9.50;;;;;;;;;;6185792;23;20005;-77
2021/10/28 20:33:46;;;;;;;12.70;7.32;;;;;;;;;;6125122;23;20114;-76
2021/10/28 20:37:05;;;;;;;8.20;6.85;;;;;;;;;;6175256;23;20015;-77
2021/10/28 20:39:06;;;;;;;9.40;6.93;;;;;;;;;;6185368;23;20012;-76
2021/10/28 20:41:32;;;;;;;10.43;6.90;;;;;;;;;;6185456;23;20504;-76
2021/10/28 20:43:57;;;;;;;11.00;7.50;;;;;;;;;;6184049;23;20005;-77
2021/10/28 20:46:26;;;;;;;9.10;6.50;;;;;;;;;;6185355;23;20001;-75
2021/10/28 20:48:53;;;;;;;9.88;6.03;;;;;;;;;;6185703;23;20009;-77
2021/10/28 20:51:21;;;;;;;12.27;9.60;;;;;;;;;;6185586;23;20028;-76
2021/10/28 20:53:47;;;;;;;11.25;9.43;;;;;;;;;;6185447;23;20024;-76
2021/10/28 20:56:12;;;;;;;9.30;7.60;;;;;;;;;;6185507;23;20428;-76
2021/10/28 20:58:38;;;;;;;8.10;6.57;;;;;;;;;;6185759;23;20028;-76
2021/10/28 21:01:05;;;;;;;14.82;8.55;;;;;;;;;;6187184;23;20436;-76
